createdAt,value
2019-01-06T14:15:50.497Z,73.73
2019-01-06T14:18:22.476Z,73.23
2019-01-06T14:20:57.029Z,73.26
2019-01-06T14:23:30.256Z,73.03
2019-01-06T14:26:10.144Z,72.80
2019-01-06T14:28:57.663Z,72.78
2019-01-06T14:31:34.278Z,72.67
2019-01-06T14:34:18.213Z,72.79
2019-01-06T14:37:01.094Z,72.84
2019-01-06T14:39:48.175Z,72.84
2019-01-06T14:42:21.946Z,72.67
2019-01-06T14:44:55.586Z,72.75
2019-01-06T14:47:55.411Z,73.00
2019-01-06T14:50:32.586Z,72.95
2019-01-06T14:53:03.429Z,72.90
2019-01-06T14:55:37.041Z,72.94
2019-01-06T14:58:07.897Z,73.10
2019-01-06T15:00:44.627Z,73.06
2019-01-06T15:03:31.707Z,73.08
2019-01-06T15:06:02.537Z,73.10
2019-01-06T15:08:49.757Z,72.90
2019-01-06T15:11:32.985Z,72.90
2019-01-06T15:14:06.559Z,72.93
2019-01-06T15:16:42.939Z,72.99
2019-01-06T15:19:13.771Z,73.02
2019-01-06T15:22:00.726Z,72.93
2019-01-06T15:24:34.246Z,72.93
2019-01-06T15:27:05.066Z,73.13
2019-01-06T15:29:41.796Z,73.13
2019-01-06T15:32:18.557Z,73.22
2019-01-06T15:35:05.522Z,73.22
2019-01-06T15:37:36.346Z,73.11
2019-01-06T15:40:09.480Z,73.04
2019-01-06T15:42:40.338Z,72.95
2019-01-06T15:45:13.886Z,72.95
2019-01-06T15:47:53.674Z,72.84
2019-01-06T15:50:27.309Z,72.84
2019-01-06T15:53:00.824Z,72.92
2019-01-06T15:55:46.674Z,72.92
2019-01-06T15:58:26.378Z,73.43
2019-01-06T16:01:13.134Z,73.50
2019-01-06T16:03:58.882Z,73.50
2019-01-06T16:06:41.798Z,73.55
2019-01-06T16:09:28.836Z,73.51
2019-01-06T16:12:14.543Z,73.06
2019-01-06T16:14:50.971Z,73.06
2019-01-06T16:17:21.806Z,73.22
2019-01-06T16:20:04.351Z,73.15
2019-01-06T16:22:40.790Z,73.01
2019-01-06T16:25:23.403Z,73.08
2019-01-06T16:28:05.848Z,73.08
2019-01-06T16:30:39.573Z,73.37
2019-01-06T16:33:28.629Z,73.69
2019-01-06T16:36:02.185Z,73.69
2019-01-06T16:38:33.063Z,73.87
2019-01-06T16:41:12.966Z,73.86
2019-01-06T16:43:43.805Z,73.86
2019-01-06T16:46:17.458Z,74.08
2019-01-06T16:49:00.400Z,74.10
2019-01-06T16:51:34.074Z,74.14
2019-01-06T16:54:04.895Z,74.14
2019-01-06T16:56:52.002Z,74.27
2019-01-06T16:59:41.015Z,74.36
2019-01-06T17:02:28.195Z,74.26
2019-01-06T17:04:59.036Z,74.28
2019-01-06T17:07:29.859Z,74.11
2019-01-06T17:10:16.995Z,73.94
2019-01-06T17:12:53.550Z,73.85
2019-01-06T17:15:26.863Z,73.85
2019-01-06T17:18:06.614Z,73.94
2019-01-06T17:20:40.031Z,73.61
2019-01-06T17:23:27.041Z,73.19
2019-01-06T17:25:57.895Z,73.19
2019-01-06T17:28:31.534Z,73.32
2019-01-06T17:31:07.861Z,73.32
2019-01-06T17:33:44.156Z,73.27
2019-01-06T17:36:26.714Z,73.15
2019-01-06T17:39:03.827Z,73.15
2019-01-06T17:41:34.676Z,73.12
2019-01-06T17:44:21.589Z,73.13
2019-01-06T17:46:58.282Z,73.23
2019-01-06T17:49:31.741Z,73.20
2019-01-06T17:52:02.594Z,73.20
2019-01-06T17:54:49.720Z,73.28
2019-01-06T17:57:36.758Z,73.21
2019-01-06T18:00:13.474Z,73.21
2019-01-06T18:02:44.299Z,73.21
2019-01-06T18:05:15.127Z,72.92
2019-01-06T18:07:48.825Z,72.92
2019-01-06T18:10:34.533Z,73.21
2019-01-06T18:13:05.391Z,72.96
2019-01-06T18:15:54.003Z,72.92
2019-01-06T18:18:27.503Z,72.98
2019-01-06T18:20:58.325Z,72.86
2019-01-06T18:23:41.127Z,72.65
2019-01-06T18:26:11.941Z,72.88
2019-01-06T18:28:45.428Z,72.88
2019-01-06T18:31:31.143Z,73.10
2019-01-06T18:34:10.725Z,73.40
2019-01-06T18:36:50.410Z,73.31
2019-01-06T18:39:36.229Z,73.31
2019-01-06T18:42:15.951Z,73.55
2019-01-06T18:44:46.783Z,73.68
2019-01-06T18:47:33.699Z,73.68
2019-01-06T18:50:07.491Z,73.82
2019-01-06T18:52:54.498Z,74.32
2019-01-06T18:55:41.470Z,74.64
2019-01-06T18:58:18.272Z,74.82
2019-01-06T19:00:55.796Z,74.76
2019-01-06T19:03:38.814Z,74.75
2019-01-06T19:06:15.687Z,74.93
2019-01-06T19:08:46.528Z,75.02
2019-01-06T19:11:26.208Z,75.07
2019-01-06T19:14:05.860Z,75.12
2019-01-06T19:16:36.685Z,75.12
2019-01-06T19:19:22.411Z,75.02
2019-01-06T19:22:09.224Z,75.12
2019-01-06T19:24:45.954Z,75.32
2019-01-06T19:27:32.909Z,75.61
2019-01-06T19:30:19.934Z,75.54
